West Marche, Arkansas
Current Conditions -  °F | °C
As of 8:58 AM on Sunday 21 Dec 2014 (Local Time) from KLRF Reporting Station
Clear Clear  
Wind Chill: 35°   Ceiling: Unl
Heat Index: 39°   Visibility: 10mi
Dew Point: 35°   Wind: 5mph
Humidity: 88%   Direction: 80°E
Pressure: 30.19"   Gusts: NA
Location:  34.868°N, 92.3217°W
Report Text: KLRF 211458Z AUTO 08004KT 10SM CLR 04/02 A3019 RMK AO2 SLP228 T00370019 58002
Loading
Personal Weather Stations






























Interactive Weather Map New forecast layout! Learn more

10-Day Weather Forecast

Advertisements
Track Severe Weather on mobile